createdAt,value
2016-09-11T00:02:02.935Z,20.3
2016-09-11T00:07:03.227Z,20.2
2016-09-11T00:12:03.666Z,20.2
2016-09-11T00:17:03.476Z,20.0
2016-09-11T00:22:03.634Z,20.0
2016-09-11T00:27:03.077Z,20.0
2016-09-11T00:32:03.621Z,19.5
2016-09-11T00:37:03.724Z,19.5
2016-09-11T00:42:03.172Z,19.6
2016-09-11T00:47:03.923Z,19.7
2016-09-11T00:52:03.486Z,19.8
2016-09-11T00:57:02.804Z,19.8
2016-09-11T01:02:03.697Z,19.8
2016-09-11T01:07:03.888Z,19.8
2016-09-11T01:12:03.272Z,19.7
2016-09-11T01:17:03.848Z,19.6
2016-09-11T01:22:03.334Z,19.6
2016-09-11T01:27:03.828Z,19.6
2016-09-11T01:32:03.414Z,19.5
2016-09-11T01:37:03.676Z,19.5
2016-09-11T01:42:03.274Z,19.5
2016-09-11T01:47:03.840Z,19.4
2016-09-11T01:52:03.344Z,19.3
2016-09-11T01:57:03.172Z,19.2
2016-09-11T02:02:03.027Z,19.2
2016-09-11T02:07:03.632Z,19.2
2016-09-11T02:12:03.313Z,19.2
2016-09-11T02:17:03.234Z,19.2
2016-09-11T02:22:02.932Z,19.2
2016-09-11T02:27:03.724Z,19.1
2016-09-11T02:32:03.421Z,19.1
2016-09-11T02:37:03.484Z,19.1
2016-09-11T02:42:03.833Z,19.0
2016-09-11T02:47:03.456Z,18.8
2016-09-11T02:52:03.491Z,18.8
2016-09-11T02:57:03.765Z,18.7
2016-09-11T03:02:03.328Z,18.6
2016-09-11T03:07:03.471Z,18.6
2016-09-11T03:12:03.022Z,18.6
2016-09-11T03:17:03.328Z,18.4
2016-09-11T03:22:03.572Z,18.4
2016-09-11T03:27:02.943Z,18.5
2016-09-11T03:32:03.187Z,18.5
2016-09-11T03:37:03.595Z,18.5
2016-09-11T03:42:03.661Z,18.5
2016-09-11T03:47:03.412Z,18.4
2016-09-11T03:52:03.567Z,18.5
2016-09-11T03:57:03.023Z,18.4
2016-09-11T04:02:03.331Z,18.4
2016-09-11T04:07:03.033Z,18.4
2016-09-11T04:12:03.458Z,18.4
2016-09-11T04:17:04.790Z,18.4
2016-09-11T04:22:03.643Z,18.3
2016-09-11T04:27:03.838Z,18.2
2016-09-11T04:32:25.658Z,18.2
2016-09-11T04:37:03.244Z,18.1
2016-09-11T04:42:02.949Z,18.0
2016-09-11T04:47:23.093Z,18.0
2016-09-11T04:52:03.424Z,18.1
2016-09-11T04:57:03.278Z,18.0
2016-09-11T05:02:17.034Z,18.0
2016-09-11T05:07:03.660Z,18.0
2016-09-11T05:12:03.398Z,18.0
2016-09-11T05:17:15.851Z,18.0
2016-09-11T05:22:03.413Z,18.0
2016-09-11T05:27:03.607Z,18.0
2016-09-11T05:32:17.160Z,18.2
2016-09-11T05:37:03.205Z,18.1
2016-09-11T05:42:03.601Z,18.4
2016-09-11T05:47:17.668Z,18.5
2016-09-11T05:52:03.592Z,18.7
2016-09-11T05:57:03.045Z,18.7
2016-09-11T06:02:16.937Z,18.9
2016-09-11T06:07:03.398Z,19.3
2016-09-11T06:12:03.449Z,19.2
2016-09-11T06:17:16.972Z,19.5
2016-09-11T06:22:03.081Z,19.7
2016-09-11T06:27:03.370Z,19.9
2016-09-11T06:32:16.821Z,19.9
2016-09-11T06:37:03.539Z,20.2
2016-09-11T06:42:03.352Z,20.3
2016-09-11T06:47:17.527Z,20.7
2016-09-11T06:52:03.343Z,20.7
2016-09-11T06:57:03.331Z,20.9
2016-09-11T07:02:15.213Z,21.4
2016-09-11T07:07:03.253Z,21.4
2016-09-11T07:12:03.424Z,21.5
2016-09-11T07:17:16.835Z,21.7
2016-09-11T07:22:03.737Z,22.0
2016-09-11T07:27:03.672Z,22.3
2016-09-11T07:32:07.213Z,22.7
2016-09-11T07:37:04.741Z,22.9
2016-09-11T07:42:02.903Z,23.6
2016-09-11T07:52:03.755Z,24.4
2016-09-11T07:57:03.519Z,24.3
2016-09-11T08:02:17.409Z,24.8
2016-09-11T08:07:03.119Z,25.3
2016-09-11T08:12:03.186Z,25.6
2016-09-11T08:17:22.249Z,26.3
2016-09-11T08:22:03.771Z,26.3
2016-09-11T08:27:03.538Z,26.8
2016-09-11T08:32:17.654Z,27.1
2016-09-11T08:37:03.646Z,27.1
2016-09-11T08:42:03.031Z,27.6
2016-09-11T08:47:17.111Z,28.0
2016-09-11T08:52:03.412Z,28.0
2016-09-11T08:57:02.987Z,28.2
2016-09-11T09:02:17.603Z,28.9
2016-09-11T09:07:03.572Z,28.8
2016-09-11T09:12:03.516Z,29.3
2016-09-11T09:17:23.707Z,29.9
2016-09-11T09:22:03.730Z,29.9
2016-09-11T09:27:03.350Z,30.1
2016-09-11T09:32:17.472Z,30.1
2016-09-11T09:37:03.364Z,30.7
2016-09-11T09:42:03.284Z,30.6
2016-09-11T09:47:20.610Z,31.3
2016-09-11T09:52:03.017Z,31.5
2016-09-11T09:57:03.203Z,31.5
2016-09-11T10:02:16.925Z,31.4
2016-09-11T10:07:03.217Z,32.2
2016-09-11T10:12:03.315Z,32.2
2016-09-11T10:17:18.356Z,32.3
2016-09-11T10:22:03.678Z,32.9
2016-09-11T10:27:03.863Z,32.9
2016-09-11T10:32:16.647Z,33.0
2016-09-11T10:37:03.214Z,32.9
2016-09-11T10:42:03.019Z,32.8
2016-09-11T10:47:17.565Z,33.2
2016-09-11T10:52:03.514Z,33.8
2016-09-11T10:57:03.093Z,33.8
2016-09-11T11:02:16.823Z,34.0
2016-09-11T11:07:03.586Z,34.0
2016-09-11T11:12:03.129Z,34.1
2016-09-11T11:17:18.317Z,34.5
2016-09-11T11:22:03.698Z,34.5
2016-09-11T11:27:03.190Z,34.7
2016-09-11T11:32:18.306Z,34.8
2016-09-11T11:37:03.801Z,34.8
2016-09-11T11:42:03.046Z,34.2
2016-09-11T11:47:16.746Z,34.3
2016-09-11T11:52:03.044Z,34.4
2016-09-11T11:57:03.595Z,34.5
2016-09-11T12:02:17.006Z,34.0
2016-09-11T12:07:03.714Z,34.3
2016-09-11T12:12:03.015Z,34.2
2016-09-11T12:17:18.897Z,34.7
2016-09-11T12:22:02.933Z,36.0
2016-09-11T12:27:03.569Z,36.3
2016-09-11T12:32:17.239Z,36.7
2016-09-11T12:37:03.150Z,36.8
2016-09-11T12:42:03.631Z,36.8
2016-09-11T12:47:17.819Z,37.0
2016-09-11T12:52:02.757Z,37.2
2016-09-11T12:57:03.219Z,37.4
2016-09-11T13:02:17.329Z,37.2
2016-09-11T13:07:03.464Z,37.1
2016-09-11T13:12:03.426Z,37.4
2016-09-11T13:17:17.813Z,38.0
2016-09-11T13:22:04.092Z,38.0
2016-09-11T13:27:03.777Z,38.3
2016-09-11T13:32:17.884Z,37.8
2016-09-11T13:37:03.609Z,36.8
2016-09-11T13:42:03.006Z,36.7
2016-09-11T13:47:17.401Z,36.5
2016-09-11T13:52:03.669Z,36.9
2016-09-11T13:57:03.375Z,37.5
2016-09-11T20:02:03.935Z,24.4
2016-09-11T20:07:03.042Z,24.3
2016-09-11T20:12:03.150Z,24.2
2016-09-11T20:17:03.220Z,24.2
2016-09-11T20:22:03.413Z,24.1
2016-09-11T20:27:03.495Z,24.0
2016-09-11T20:32:03.411Z,23.9
2016-09-11T20:37:03.304Z,23.7
2016-09-11T20:42:03.564Z,23.7
2016-09-11T20:47:03.439Z,23.6
2016-09-11T20:52:03.375Z,23.5
2016-09-11T20:57:03.397Z,23.4
2016-09-11T21:02:03.494Z,23.2
2016-09-11T21:07:03.399Z,23.2
2016-09-11T21:12:03.162Z,23.1
2016-09-11T21:17:04.029Z,22.9
2016-09-11T21:22:02.999Z,22.9
2016-09-11T21:27:03.187Z,22.8
2016-09-11T21:32:03.775Z,22.4
2016-09-11T21:37:03.393Z,22.4
2016-09-11T21:42:03.670Z,22.3
2016-09-11T21:47:03.199Z,22.1
2016-09-11T21:52:03.284Z,22.1
2016-09-11T21:57:02.913Z,21.8
2016-09-11T22:02:03.833Z,21.5
2016-09-11T22:07:03.635Z,21.5
2016-09-11T22:12:03.450Z,21.6
2016-09-11T22:22:03.792Z,21.3
2016-09-11T22:27:03.385Z,21.3
2016-09-11T22:33:13.043Z,21.3
2016-09-11T22:37:03.747Z,21.3
2016-09-11T22:42:03.147Z,21.2
2016-09-11T22:47:03.567Z,21.2
2016-09-11T22:52:02.940Z,21.1
2016-09-11T22:57:03.351Z,21.1
2016-09-11T23:02:03.761Z,21.0
2016-09-11T23:07:03.167Z,20.9
2016-09-11T23:12:02.995Z,20.9
2016-09-11T23:17:07.403Z,20.9
2016-09-11T23:22:03.409Z,20.9
2016-09-11T23:27:03.750Z,20.8
2016-09-11T23:32:03.490Z,20.7
2016-09-11T23:37:03.669Z,20.6
2016-09-11T23:42:03.024Z,20.4
2016-09-11T23:47:03.527Z,20.3
2016-09-11T23:52:03.713Z,20.2
2016-09-11T23:57:03.021Z,20.1
